Wittmann, Arizona
Current Conditions -  °F | °C
As of 11:58 PM on Thursday 23 Oct 2014 (Local Time) from KLUF Reporting Station
Clear Clear  
Wind Chill: 67°   Ceiling: Unl
Heat Index: 67°   Visibility: 10mi
Dew Point: 48°   Wind: 7mph
Humidity: 50%   Direction: 360°N
Pressure: 29.98"   Gusts: NA
Location:  33.78°N, 112.53°W
Report Text: KLUF 240658Z AUTO 36006KT 10SM CLR 20/09 A2998 RMK AO2 SLP142 T01970089 403280165 $
Loading
Personal Weather Stations






























Interactive Weather Map
Tropical Storm Tracking
New forecast layout! Learn more

10-Day Weather Forecast

Advertisements
Track Severe Weather on mobile